Old London, Texas
Current Conditions -  °F | °C
As of 4:35 AM on Monday 26 Jan 2015 (Local Time) from KRFI Reporting Station
Clear Clear  
Wind Chill: 38°   Ceiling: Unl
Heat Index: 38°   Visibility: 10mi
Dew Point: 30°   Wind: 3mph
Humidity: 73%   Direction: 280°W
Pressure: 30.19"   Gusts: NA
Location:  32.2538°N, 94.9427°W
Report Text: KRFI 261035Z AUTO 28003KT 10SM CLR 04/M01 A3019 RMK AO2 T00351009
Loading
Personal Weather Stations






























Interactive Weather Map New forecast layout! Learn more

10-Day Weather Forecast

Advertisements
Track Severe Weather on mobile